Time;durP1;ratioP1;P1;durP2;ratioP2;P2;SDS_P1;SDS_P2;PMS_P1;PMS_P2;Temp;Humidity;BMP_temperature;BMP_pressure;BME280_temperature;BME280_humidity;BME280_pressure;Samples;Min_cycle;Max_cycle;Signal;HPM_P1;HPM_P2
2024/01/27 00:00:10;;;;;;;6.38;2.00;;;;;;;4.21;71.25;101839.56;5021328;28;20049;-56
2024/01/27 00:02:39;;;;;;;12.15;1.13;;;;;;;4.21;71.04;101830.19;5032320;28;20136;-55
2024/01/27 00:05:06;;;;;;;3.47;0.85;;;;;;;4.20;71.13;101837.78;5026500;28;20396;-54
2024/01/27 00:07:36;;;;;;;5.63;1.33;;;;;;;4.16;71.71;101830.75;5023144;28;20158;-54
2024/01/27 00:10:03;;;;;;;13.15;1.70;;;;;;;4.15;71.81;101834.13;5020433;28;20054;-50
2024/01/27 00:12:30;;;;;;;8.95;1.33;;;;;;;4.13;70.96;101826.34;5022317;28;20053;-50
2024/01/27 00:14:56;;;;;;;5.43;1.35;;;;;;;4.07;71.76;101826.91;5023720;28;20077;-56
2024/01/27 00:17:25;;;;;;;5.35;0.93;;;;;;;4.07;71.91;101826.91;5021482;28;20154;-51
2024/01/27 00:19:51;;;;;;;5.38;1.05;;;;;;;4.04;72.04;101836.09;5020575;28;20045;-55
2024/01/27 00:22:20;;;;;;;6.53;0.77;;;;;;;4.03;72.15;101840.38;5025267;28;20129;-51
2024/01/27 00:24:47;;;;;;;4.57;1.05;;;;;;;4.00;72.15;101840.19;5028418;28;20049;-58
2024/01/27 00:27:16;;;;;;;7.05;1.80;;;;;;;3.98;71.74;101831.53;5022606;28;20053;-50
2024/01/27 00:29:43;;;;;;;4.47;1.23;;;;;;;3.96;71.97;101828.88;5025974;28;20504;-57
2024/01/27 00:32:10;;;;;;;8.25;0.95;;;;;;;3.94;72.27;101829.59;5033956;28;20050;-51
2024/01/27 00:34:36;;;;;;;5.18;1.10;;;;;;;3.88;72.14;101829.28;5025932;28;20068;-57
2024/01/27 00:37:06;;;;;;;8.25;0.80;;;;;;;3.89;72.03;101837.06;5016941;28;20049;-54
2024/01/27 00:39:32;;;;;;;6.28;1.42;;;;;;;3.82;72.69;101832.41;5024232;28;20053;-53
2024/01/27 00:41:59;;;;;;;4.32;1.25;;;;;;;3.81;72.00;101836.63;5025156;28;20055;-53
2024/01/27 00:44:26;;;;;;;9.38;1.70;;;;;;;3.80;72.44;101841.69;5027288;28;20128;-55
2024/01/27 00:46:53;;;;;;;6.07;1.38;;;;;;;3.79;71.96;101833.13;5026742;28;20111;-55
2024/01/27 00:49:20;;;;;;;14.45;1.52;;;;;;;3.73;72.58;101835.34;5029315;28;20053;-56
2024/01/27 00:51:47;;;;;;;8.20;1.23;;;;;;;3.73;72.66;101827.66;5026126;28;20049;-53
2024/01/27 00:54:13;;;;;;;5.72;1.15;;;;;;;3.69;72.68;101824.03;5022568;28;20057;-57
2024/01/27 00:56:41;;;;;;;7.07;1.55;;;;;;;3.68;72.87;101821.41;5027194;28;20085;-51
2024/01/27 00:59:08;;;;;;;6.38;1.40;;;;;;;3.66;72.34;101825.56;5032661;28;20052;-53
2024/01/27 01:01:35;;;;;;;5.63;1.40;;;;;;;3.60;72.46;101824.44;5027284;28;20051;-52
2024/01/27 01:04:02;;;;;;;13.82;1.95;;;;;;;3.61;73.15;101827.84;5025994;28;20049;-53
2024/01/27 01:06:29;;;;;;;2.22;0.75;;;;;;;3.58;73.21;101820.88;5029078;28;20140;-54
2024/01/27 01:08:56;;;;;;;7.15;1.10;;;;;;;3.57;73.39;101824.25;5026625;28;20049;-54
2024/01/27 01:11:24;;;;;;;13.48;2.20;;;;;;;3.57;72.71;101823.38;5027729;28;20067;-55
2024/01/27 01:13:50;;;;;;;6.28;1.08;;;;;;;3.56;72.99;101827.63;5028063;28;20494;-52
2024/01/27 01:16:17;;;;;;;9.82;0.98;;;;;;;3.53;73.35;101821.44;5027168;28;20124;-51
2024/01/27 01:18:45;;;;;;;7.93;1.48;;;;;;;3.53;73.18;101826.56;5026721;28;20490;-54
2024/01/27 01:21:12;;;;;;;7.97;1.30;;;;;;;3.51;72.96;101826.47;5026894;28;20511;-55
2024/01/27 01:23:39;;;;;;;5.25;1.10;;;;;;;3.49;73.24;101825.53;5027901;28;20132;-53
2024/01/27 01:26:06;;;;;;;6.15;1.35;;;;;;;3.46;73.29;101816.00;5027456;28;20127;-53
2024/01/27 01:28:33;;;;;;;6.88;0.82;;;;;;;3.46;73.17;101815.09;5031450;28;20144;-58
2024/01/27 01:30:59;;;;;;;6.78;1.20;;;;;;;3.44;73.49;101806.44;5031006;28;20065;-54
2024/01/27 01:33:27;;;;;;;7.03;1.30;;;;;;;3.43;73.56;101802.13;5029826;28;20498;-53
2024/01/27 01:35:54;;;;;;;12.45;1.88;;;;;;;3.41;73.07;101802.03;5027316;28;20053;-53
2024/01/27 01:38:21;;;;;;;4.30;0.88;;;;;;;3.37;73.29;101801.78;5025595;28;20045;-56
2024/01/27 01:40:48;;;;;;;3.42;1.00;;;;;;;3.39;73.38;101802.75;5025917;28;20045;-53
2024/01/27 01:43:14;;;;;;;6.53;1.63;;;;;;;3.37;73.13;101799.25;5027584;28;20049;-51
2024/01/27 01:45:44;;;;;;;6.57;1.63;;;;;;;3.36;73.10;101798.34;5025731;28;20045;-47
2024/01/27 01:48:10;;;;;;;8.50;1.45;;;;;;;3.36;72.83;101800.00;5026657;28;20103;-54
2024/01/27 01:50:40;;;;;;;7.80;1.27;;;;;;;3.33;73.31;101804.19;5026707;28;20053;-52
2024/01/27 01:53:07;;;;;;;4.10;1.40;;;;;;;3.32;73.50;101797.28;5024914;28;20494;-50
2024/01/27 01:55:34;;;;;;;5.80;1.00;;;;;;;3.31;73.53;101794.66;5026710;28;20676;-53
2024/01/27 01:58:01;;;;;;;7.20;1.75;;;;;;;3.28;73.46;101789.34;5022530;28;20053;-53
2024/01/27 02:00:28;;;;;;;5.50;1.35;;;;;;;3.28;73.63;101805.59;5032276;28;20132;-54
2024/01/27 02:02:55;;;;;;;6.22;0.88;;;;;;;3.24;73.37;101793.41;5025808;28;20053;-54
2024/01/27 02:05:22;;;;;;;7.85;1.08;;;;;;;3.24;73.56;101798.53;5033929;28;20076;-53
2024/01/27 02:07:49;;;;;;;2.30;0.90;;;;;;;3.23;73.34;101801.91;5029460;28;20075;-55
2024/01/27 02:10:17;;;;;;;6.93;1.40;;;;;;;3.22;73.65;101800.13;5027731;28;20049;-54
2024/01/27 02:12:45;;;;;;;4.05;0.70;;;;;;;3.20;73.59;101796.59;5016775;28;20061;-49
2024/01/27 02:15:13;;;;;;;1.75;0.88;;;;;;;3.19;73.56;101805.09;5025391;28;20049;-54
2024/01/27 02:17:40;;;;;;;5.75;1.08;;;;;;;3.16;74.09;101795.56;5027527;28;20053;-55
2024/01/27 02:20:08;;;;;;;6.60;0.95;;;;;;;3.16;73.84;101798.13;5027546;28;20077;-51
2024/01/27 02:22:36;;;;;;;6.18;1.10;;;;;;;3.14;73.71;101796.28;5020487;28;20064;-53
2024/01/27 02:25:03;;;;;;;7.95;1.35;;;;;;;3.14;73.58;101796.28;5025738;28;20060;-51
2024/01/27 02:27:30;;;;;;;9.52;1.33;;;;;;;3.13;73.48;101797.03;5024918;28;20046;-50
2024/01/27 02:29:57;;;;;;;9.68;1.27;;;;;;;3.12;74.50;101797.84;5014261;28;20073;-50
2024/01/27 02:32:23;;;;;;;6.57;1.38;;;;;;;3.12;74.16;101798.75;5004243;28;20045;-46
2024/01/27 02:34:50;;;;;;;4.03;0.63;;;;;;;3.10;74.37;101796.91;5004658;28;20049;-54
2024/01/27 02:37:18;;;;;;;3.25;0.90;;;;;;;3.10;74.22;101789.22;5006047;28;20062;-51
2024/01/27 02:39:45;;;;;;;3.00;1.02;;;;;;;3.08;74.56;101791.69;5022979;28;20053;-53
2024/01/27 02:42:11;;;;;;;13.43;2.03;;;;;;;3.08;73.72;101800.22;5021501;28;20062;-54
2024/01/27 02:44:38;;;;;;;3.90;0.70;;;;;;;3.07;74.24;101806.16;5017435;28;20176;-54
2024/01/27 02:47:05;;;;;;;9.38;1.15;;;;;;;3.07;73.88;101801.03;5020276;28;20061;-56
2024/01/27 02:49:31;;;;;;;4.28;0.75;;;;;;;3.05;74.90;101802.66;5026532;28;20107;-55
2024/01/27 02:51:58;;;;;;;7.43;0.98;;;;;;;3.03;73.95;101799.09;5026154;28;20489;-52
2024/01/27 02:54:27;;;;;;;12.10;1.50;;;;;;;3.02;74.51;101805.03;5019219;28;20054;-52
2024/01/27 02:56:54;;;;;;;6.32;1.42;;;;;;;3.03;74.90;101803.31;5025642;28;20548;-53
2024/01/27 02:59:21;;;;;;;5.30;1.00;;;;;;;3.04;75.04;101800.00;5021498;28;20049;-50
2024/01/27 03:01:47;;;;;;;3.17;0.50;;;;;;;3.05;74.91;101792.41;5023526;28;20075;-54
2024/01/27 03:04:14;;;;;;;2.78;0.98;;;;;;;3.04;74.35;101790.63;5016503;28;20057;-54
2024/01/27 03:06:41;;;;;;;3.42;1.15;;;;;;;3.03;75.10;101776.06;5024899;28;20045;-54
2024/01/27 03:09:08;;;;;;;7.88;1.63;;;;;;;3.03;75.15;101783.75;5025844;28;20056;-57
2024/01/27 03:11:34;;;;;;;2.70;0.73;;;;;;;3.04;74.95;101782.94;5023610;28;20046;-56
2024/01/27 03:14:01;;;;;;;6.70;1.10;;;;;;;3.04;74.72;101784.63;5010068;28;20050;-50
2024/01/27 03:16:28;;;;;;;12.63;1.65;;;;;;;3.04;74.75;101785.50;5019862;28;20053;-51
2024/01/27 03:18:55;;;;;;;2.97;0.60;;;;;;;2.99;75.26;101776.69;5020207;28;20658;-50
2024/01/27 03:21:21;;;;;;;6.95;1.02;;;;;;;3.05;75.10;101779.59;5023149;28;20657;-54
2024/01/27 03:23:48;;;;;;;10.00;1.00;;;;;;;3.03;75.19;101778.63;5021661;28;20045;-51
2024/01/27 03:26:15;;;;;;;5.63;0.88;;;;;;;3.02;74.52;101766.63;5016838;28;20112;-52
2024/01/27 03:28:42;;;;;;;20.75;1.75;;;;;;;3.03;74.29;101781.19;5025087;28;20050;-53
2024/01/27 03:31:08;;;;;;;8.30;1.08;;;;;;;3.04;74.83;101785.50;5024826;28;20041;-49
2024/01/27 03:33:35;;;;;;;3.85;0.80;;;;;;;3.04;74.61;101795.75;5023715;28;20046;-55
2024/01/27 03:36:02;;;;;;;3.70;1.13;;;;;;;3.06;74.67;101804.41;5025768;28;20192;-55
2024/01/27 03:38:29;;;;;;;5.35;0.70;;;;;;;3.06;74.42;101806.06;5025382;28;20140;-56
2024/01/27 03:40:56;;;;;;;6.60;1.45;;;;;;;3.07;74.74;101816.41;5022330;28;20049;-50
2024/01/27 03:43:24;;;;;;;11.88;0.68;;;;;;;3.06;74.51;101814.66;5020320;28;20053;-52
2024/01/27 03:45:50;;;;;;;7.80;0.80;;;;;;;3.07;75.48;101813.84;5019313;28;20057;-57
2024/01/27 03:48:18;;;;;;;5.20;0.60;;;;;;;3.13;74.60;101800.50;5026002;28;20556;-51
2024/01/27 03:50:46;;;;;;;3.25;0.88;;;;;;;3.16;75.28;101800.69;5024050;28;20049;-52
2024/01/27 03:53:13;;;;;;;6.57;0.93;;;;;;;3.19;75.16;101799.97;5015791;28;20054;-50
2024/01/27 03:55:40;;;;;;;8.27;1.20;;;;;;;3.17;75.56;101786.19;5006592;28;20495;-51
2024/01/27 03:58:07;;;;;;;2.40;0.63;;;;;;;3.24;75.16;101788.28;5021365;28;20494;-54
2024/01/27 04:00:33;;;;;;;7.78;0.85;;;;;;;3.24;75.05;101788.28;5030570;28;20045;-52
2024/01/27 04:03:02;;;;;;;5.40;0.68;;;;;;;3.24;74.27;101784.88;5027937;28;20077;-54
2024/01/27 04:05:30;;;;;;;6.00;0.90;;;;;;;3.23;75.07;101781.41;5028515;28;20061;-50
2024/01/27 04:07:56;;;;;;;6.97;1.35;;;;;;;3.20;74.50;101776.13;5027955;28;20716;-54
2024/01/27 04:10:23;;;;;;;9.38;0.82;;;;;;;3.22;74.55;101795.03;5028108;28;20038;-53
2024/01/27 04:12:50;;;;;;;11.40;1.02;;;;;;;3.17;75.37;101788.75;5025170;28;20049;-51
2024/01/27 04:15:17;;;;;;;7.95;0.80;;;;;;;3.19;75.38;101784.59;5027889;28;20049;-52
2024/01/27 04:17:43;;;;;;;7.10;0.82;;;;;;;3.18;74.99;101777.72;5029465;28;20053;-55
2024/01/27 04:20:12;;;;;;;2.85;0.73;;;;;;;3.15;75.53;101772.41;5020391;28;20233;-53
2024/01/27 04:22:39;;;;;;;5.57;0.90;;;;;;;3.17;74.79;101781.06;5024288;28;20053;-54
2024/01/27 04:25:07;;;;;;;12.95;1.05;;;;;;;3.16;75.48;101779.31;5030253;28;20049;-55
2024/01/27 04:27:39;;;;;;;6.32;1.38;;;;;;;3.15;74.29;101780.09;5026169;28;20669;-56
2024/01/27 04:30:08;;;;;;;7.32;0.90;;;;;;;3.12;75.26;101782.50;5020828;28;20057;-50
2024/01/27 04:32:35;;;;;;;3.35;1.08;;;;;;;3.10;74.39;101792.63;5028390;28;20053;-53
2024/01/27 04:35:03;;;;;;;5.15;1.52;;;;;;;3.08;74.49;101801.94;5029444;28;20072;-53
2024/01/27 04:37:31;;;;;;;6.30;0.82;;;;;;;3.05;75.51;101796.63;5025186;28;20485;-54
2024/01/27 04:39:58;;;;;;;7.20;1.13;;;;;;;3.05;75.12;101786.38;5024082;28;20526;-55
2024/01/27 04:42:24;;;;;;;9.90;1.42;;;;;;;3.05;75.17;101776.16;5026680;28;20046;-55
2024/01/27 04:44:51;;;;;;;1.33;0.40;;;;;;;3.01;74.95;101763.97;5022995;28;20104;-52
2024/01/27 04:47:18;;;;;;;6.68;0.95;;;;;;;3.02;74.60;101760.59;5029024;28;20124;-55
2024/01/27 04:49:45;;;;;;;4.50;0.73;;;;;;;2.98;75.26;101754.44;5027531;28;20374;-54
2024/01/27 04:52:12;;;;;;;4.03;0.60;;;;;;;2.97;74.39;101752.66;5025824;28;20494;-48
2024/01/27 04:54:40;;;;;;;7.53;0.93;;;;;;;2.93;74.89;101753.28;5021244;28;20049;-53
2024/01/27 04:57:06;;;;;;;2.90;0.77;;;;;;;2.91;75.01;101767.69;5028071;28;20049;-56
2024/01/27 04:59:33;;;;;;;7.93;1.00;;;;;;;2.90;75.02;101771.06;5032036;28;20055;-56
2024/01/27 05:02:00;;;;;;;10.55;1.02;;;;;;;2.86;74.53;101774.22;5020711;28;20056;-51
2024/01/27 05:04:26;;;;;;;4.68;1.08;;;;;;;2.85;74.12;101773.34;5018316;28;20050;-54
2024/01/27 05:06:54;;;;;;;3.33;1.00;;;;;;;2.83;74.52;101765.59;5038247;28;20057;-52
2024/01/27 05:09:21;;;;;;;3.75;0.93;;;;;;;2.81;74.16;101777.41;5026437;28;20079;-54
2024/01/27 05:11:51;;;;;;;5.53;0.88;;;;;;;2.79;74.27;101780.66;5025209;28;20057;-54
2024/01/27 05:14:18;;;;;;;5.75;0.90;;;;;;;2.77;74.60;101775.44;5020005;28;20072;-53
2024/01/27 05:16:45;;;;;;;7.47;0.93;;;;;;;2.74;74.82;101764.19;5027981;28;20506;-49
2024/01/27 05:19:11;;;;;;;5.28;0.75;;;;;;;2.72;74.20;101761.53;5022498;28;20049;-54
2024/01/27 05:21:38;;;;;;;4.68;1.15;;;;;;;2.69;75.03;101761.34;5027964;28;20045;-53
2024/01/27 05:24:05;;;;;;;2.53;0.68;;;;;;;2.67;74.79;101753.56;5027240;28;20049;-54
2024/01/27 05:26:32;;;;;;;5.25;1.23;;;;;;;2.67;75.19;101768.06;5021398;28;20061;-53
2024/01/27 05:28:59;;;;;;;3.92;0.82;;;;;;;2.64;75.01;101778.13;5032403;28;20041;-50
2024/01/27 05:31:26;;;;;;;6.68;0.70;;;;;;;2.63;75.17;101767.00;5025329;28;20046;-54
2024/01/27 05:33:53;;;;;;;5.65;0.82;;;;;;;2.63;75.20;101758.44;5026394;28;20060;-51
2024/01/27 05:36:20;;;;;;;2.63;1.08;;;;;;;2.60;74.99;101750.59;5022781;28;20054;-50
2024/01/27 05:38:46;;;;;;;10.40;0.70;;;;;;;2.59;74.46;101742.03;5025835;28;20095;-58
2024/01/27 05:41:15;;;;;;;3.90;0.52;;;;;;;2.59;74.16;101734.34;5026053;28;20055;-55
2024/01/27 05:43:42;;;;;;;4.93;0.60;;;;;;;2.57;74.70;101736.81;5027625;28;20049;-54
2024/01/27 05:46:10;;;;;;;13.68;2.08;;;;;;;2.54;74.68;101741.75;5026400;28;20054;-51
2024/01/27 05:48:36;;;;;;;3.25;0.80;;;;;;;2.53;74.81;101745.13;5025356;28;20065;-55
2024/01/27 05:51:03;;;;;;;5.10;0.88;;;;;;;2.52;75.32;101743.34;5023064;28;20092;-54
2024/01/27 05:53:30;;;;;;;2.60;0.95;;;;;;;2.54;74.97;101746.88;5026510;28;20155;-49
2024/01/27 05:55:57;;;;;;;7.78;0.90;;;;;;;2.55;74.20;101746.09;5025161;28;20445;-54
2024/01/27 05:58:24;;;;;;;8.43;0.95;;;;;;;2.58;74.32;101753.06;5028274;28;20063;-52
2024/01/27 06:00:50;;;;;;;8.35;0.98;;;;;;;2.57;75.06;101757.28;5027176;28;20049;-50
2024/01/27 06:03:17;;;;;;;6.60;1.08;;;;;;;2.59;74.58;101764.16;5027461;28;20057;-51
2024/01/27 06:05:44;;;;;;;3.53;0.65;;;;;;;2.60;74.96;101766.81;5033068;28;20113;-58
2024/01/27 06:08:11;;;;;;;4.40;0.93;;;;;;;2.61;74.59;101760.91;5035276;28;20053;-50
2024/01/27 06:10:38;;;;;;;1.67;0.60;;;;;;;2.62;74.22;101759.22;5020721;28;20136;-53
2024/01/27 06:13:08;;;;;;;10.23;1.63;;;;;;;2.64;74.59;101758.50;5022880;28;20049;-53
2024/01/27 06:15:34;;;;;;;2.17;0.80;;;;;;;2.65;74.35;101759.41;5025161;28;20050;-56
2024/01/27 06:18:01;;;;;;;6.93;1.63;;;;;;;2.64;74.31;101752.53;5026361;28;20049;-49
2024/01/27 06:20:28;;;;;;;4.97;1.05;;;;;;;2.65;75.39;101749.16;5021565;28;20149;-56
2024/01/27 06:22:55;;;;;;;6.47;1.48;;;;;;;2.63;74.45;101761.88;5027326;28;20045;-56
2024/01/27 06:25:22;;;;;;;1.08;0.60;;;;;;;2.63;75.20;101761.88;5026012;28;20057;-53
2024/01/27 06:27:48;;;;;;;4.40;1.00;;;;;;;2.62;74.99;101752.44;5020844;28;20119;-53
2024/01/27 06:30:15;;;;;;;7.40;1.17;;;;;;;2.63;74.61;101761.00;5029159;28;20049;-54
2024/01/27 06:32:43;;;;;;;3.70;1.58;;;;;;;2.61;75.15;101767.69;5023493;28;20084;-51
2024/01/27 06:35:09;;;;;;;7.55;0.95;;;;;;;2.61;74.87;101767.69;5022995;28;20049;-54
2024/01/27 06:37:37;;;;;;;4.60;1.00;;;;;;;2.57;74.83;101757.28;5026610;28;20068;-56
2024/01/27 06:40:05;;;;;;;7.22;1.63;;;;;;;2.55;74.25;101758.88;5023969;28;20133;-53
2024/01/27 06:42:32;;;;;;;4.93;1.17;;;;;;;2.52;74.07;101753.59;5029308;28;20050;-55
2024/01/27 06:44:59;;;;;;;5.72;0.80;;;;;;;2.49;74.75;101757.63;5025554;28;20049;-52
2024/01/27 06:47:26;;;;;;;7.07;1.05;;;;;;;2.46;75.01;101753.22;5023570;28;20084;-55
2024/01/27 06:49:52;;;;;;;9.52;1.95;;;;;;;2.43;74.43;101743.69;5025061;28;20061;-58
2024/01/27 06:52:19;;;;;;;7.40;1.30;;;;;;;2.41;74.36;101750.41;5023937;28;20045;-51
2024/01/27 06:54:46;;;;;;;4.10;0.95;;;;;;;2.39;74.19;101746.88;5021795;28;20045;-48
2024/01/27 06:57:20;;;;;;;9.38;1.25;;;;;;;2.35;74.79;101744.03;5020525;28;20056;-52
2024/01/27 06:59:52;;;;;;;8.55;1.25;;;;;;;2.33;73.78;101741.38;5023581;28;20076;-55
2024/01/27 07:02:22;;;;;;;9.80;1.27;;;;;;;2.30;74.51;101742.09;5017690;28;20045;-52
2024/01/27 07:04:50;;;;;;;9.73;0.77;;;;;;;2.30;74.90;101752.31;5020058;28;20077;-52
2024/01/27 07:07:17;;;;;;;5.97;0.82;;;;;;;2.27;74.81;101762.38;5014010;28;20054;-55
2024/01/27 07:09:44;;;;;;;8.88;1.52;;;;;;;2.26;74.48;101770.84;5021963;28;20526;-53
2024/01/27 07:12:10;;;;;;;5.95;1.20;;;;;;;2.26;74.66;101765.72;5025846;28;20041;-56
2024/01/27 07:14:37;;;;;;;6.97;1.67;;;;;;;2.26;74.50;101759.75;5019615;28;20046;-56
2024/01/27 07:17:04;;;;;;;5.43;1.10;;;;;;;2.26;74.64;101759.75;5025698;28;20663;-53
2024/01/27 07:19:32;;;;;;;9.13;1.27;;;;;;;2.25;74.59;101763.97;5025444;28;20494;-48
2024/01/27 07:22:00;;;;;;;6.65;0.98;;;;;;;2.23;74.03;101768.09;5029073;28;20501;-55
2024/01/27 07:24:27;;;;;;;5.22;0.80;;;;;;;2.23;74.08;101760.44;5025573;28;20049;-58
2024/01/27 07:26:53;;;;;;;3.53;0.77;;;;;;;2.21;75.27;101756.91;5024156;28;20064;-54
2024/01/27 07:29:22;;;;;;;9.98;1.05;;;;;;;2.22;75.04;101758.66;5025468;28;20084;-53
2024/01/27 07:31:49;;;;;;;3.58;0.70;;;;;;;2.22;74.28;101763.78;5026284;28;20046;-52
2024/01/27 07:34:16;;;;;;;4.22;0.75;;;;;;;2.22;74.35;101762.88;5024059;28;20461;-53
2024/01/27 07:36:45;;;;;;;8.20;1.35;;;;;;;2.23;74.55;101765.53;5022342;28;20068;-54
2024/01/27 07:39:12;;;;;;;8.55;0.88;;;;;;;2.21;74.20;101767.13;5020193;28;20064;-52
2024/01/27 07:41:38;;;;;;;3.97;1.10;;;;;;;2.20;75.19;101764.50;5021696;28;20057;-56
2024/01/27 07:44:08;;;;;;;5.00;1.70;;;;;;;2.20;74.14;101780.72;5019006;28;20049;-49
2024/01/27 07:46:36;;;;;;;6.28;1.90;;;;;;;2.20;75.27;101767.94;5016934;28;20121;-49
2024/01/27 07:49:03;;;;;;;9.13;1.65;;;;;;;2.21;74.42;101766.25;5017974;28;20049;-59
2024/01/27 07:51:30;;;;;;;6.70;0.70;;;;;;;2.20;75.33;101770.50;5019696;28;20041;-58
2024/01/27 07:53:57;;;;;;;8.15;1.75;;;;;;;2.22;75.23;101768.00;5015353;28;20144;-55
2024/01/27 07:56:24;;;;;;;11.50;2.50;;;;;;;2.22;74.39;101763.78;5019164;28;20518;-53
2024/01/27 07:58:51;;;;;;;5.85;1.17;;;;;;;2.24;73.80;101762.22;5022837;28;20049;-56
2024/01/27 08:01:18;;;;;;;4.40;1.00;;;;;;;2.25;75.14;101763.97;5019057;28;20054;-52
2024/01/27 08:03:45;;;;;;;8.27;0.90;;;;;;;2.25;74.93;101768.19;5000852;28;20080;-56
2024/01/27 08:06:17;;;;;;;6.68;1.40;;;;;;;2.24;74.33;101775.00;5017889;28;20084;-51
2024/01/27 08:08:46;;;;;;;42.10;10.30;;;;;;;2.24;74.19;101772.44;5020895;28;20045;-49
2024/01/27 08:11:14;;;;;;;5.28;1.83;;;;;;;2.26;73.96;101767.41;5018633;28;20518;-50
2024/01/27 08:13:42;;;;;;;6.28;1.27;;;;;;;2.28;74.24;101764.16;5017662;28;20057;-53
2024/01/27 08:16:11;;;;;;;5.10;0.82;;;;;;;2.31;74.20;101764.34;5006122;28;20405;-49
2024/01/27 08:18:39;;;;;;;4.93;1.00;;;;;;;2.34;74.10;101773.88;5025025;28;20056;-48
2024/01/27 08:21:06;;;;;;;7.65;2.08;;;;;;;2.40;74.14;101779.31;5023864;28;20046;-47
2024/01/27 08:23:34;;;;;;;21.85;7.13;;;;;;;2.49;74.26;101773.88;5017262;28;20461;-52
2024/01/27 08:26:01;;;;;;;18.83;3.47;;;;;;;2.55;74.45;101784.47;5024155;28;20617;-49
2024/01/27 08:28:27;;;;;;;9.23;2.72;;;;;;;2.62;74.43;101779.69;5025614;28;20056;-53
2024/01/27 08:30:54;;;;;;;6.63;2.17;;;;;;;2.63;74.17;101791.72;5029270;28;20053;-52
2024/01/27 08:33:21;;;;;;;10.63;1.50;;;;;;;2.66;73.90;101786.75;5023391;28;20058;-50
2024/01/27 08:35:51;;;;;;;8.73;1.88;;;;;;;2.73;74.35;101788.88;5020740;28;20160;-50
2024/01/27 08:38:18;;;;;;;4.88;1.33;;;;;;;2.78;73.53;101789.16;5018915;28;20060;-53
2024/01/27 08:40:45;;;;;;;7.63;2.13;;;;;;;2.86;73.39;101789.56;5005603;28;20410;-50
2024/01/27 08:43:11;;;;;;;7.03;1.20;;;;;;;2.89;73.60;101782.06;5028200;28;20045;-52
2024/01/27 08:45:38;;;;;;;15.68;3.60;;;;;;;2.91;73.77;101783.91;5026278;28;20778;-49
2024/01/27 08:48:06;;;;;;;5.88;1.38;;;;;;;2.93;73.38;101776.31;5024472;28;20430;-56
2024/01/27 08:50:33;;;;;;;6.93;1.13;;;;;;;2.95;74.01;101769.63;5020777;28;20132;-50
2024/01/27 08:53:00;;;;;;;16.20;1.20;;;;;;;2.99;73.30;101775.78;5017686;28;20060;-53
2024/01/27 08:55:28;;;;;;;8.60;0.95;;;;;;;3.04;73.44;101776.94;5022083;28;20049;-51
2024/01/27 08:57:56;;;;;;;4.95;0.93;;;;;;;3.10;74.19;101778.97;5023754;28;20502;-52
2024/01/27 09:00:23;;;;;;;6.63;1.05;;;;;;;3.17;73.38;101783.63;5023372;28;20064;-53
2024/01/27 09:02:51;;;;;;;10.85;0.95;;;;;;;3.24;73.22;101785.72;5020959;28;20520;-55
2024/01/27 09:05:18;;;;;;;3.35;0.75;;;;;;;3.29;73.50;101801.34;5014910;28;20057;-52
2024/01/27 09:07:45;;;;;;;10.73;1.50;;;;;;;3.31;73.27;101798.06;5015509;28;20679;-53
2024/01/27 09:10:13;;;;;;;6.93;1.70;;;;;;;3.39;73.74;101802.75;5021469;28;20045;-51
2024/01/27 09:12:45;;;;;;;9.07;1.98;;;;;;;3.42;73.57;101813.16;5021009;28;20053;-50
2024/01/27 09:15:12;;;;;;;8.02;1.55;;;;;;;3.47;73.64;101811.72;5022480;28;20050;-53
2024/01/27 09:17:39;;;;;;;4.55;1.73;;;;;;;3.52;73.91;101802.63;5019976;28;20110;-53
2024/01/27 09:20:07;;;;;;;2.90;0.77;;;;;;;3.57;73.06;101803.75;5026900;28;20545;-53
2024/01/27 09:22:33;;;;;;;1.95;0.57;;;;;;;3.63;73.63;101812.56;5022043;28;20058;-49
2024/01/27 09:25:00;;;;;;;6.53;0.70;;;;;;;3.71;73.59;101826.69;5015502;28;20057;-55
2024/01/27 09:27:27;;;;;;;10.27;1.52;;;;;;;3.80;73.22;101822.06;5018903;28;20057;-51
2024/01/27 09:29:54;;;;;;;9.48;1.75;;;;;;;3.94;73.51;101824.47;5025776;28;20053;-52
2024/01/27 09:32:20;;;;;;;3.22;1.20;;;;;;;4.10;73.39;101827.06;5025449;28;20049;-53
2024/01/27 09:34:47;;;;;;;5.90;1.25;;;;;;;4.28;72.91;101826.25;5016197;28;20059;-52
2024/01/27 09:37:14;;;;;;;4.95;1.08;;;;;;;4.45;72.72;101823.66;5023259;28;20049;-56
2024/01/27 09:39:41;;;;;;;4.28;0.70;;;;;;;4.69;72.37;101823.16;5019745;28;20717;-51
2024/01/27 09:42:15;;;;;;;14.50;3.38;;;;;;;5.03;73.22;101819.66;5023908;28;20049;-54
2024/01/27 09:44:44;;;;;;;10.45;1.75;;;;;;;5.55;72.91;101820.41;5021442;28;20481;-52
2024/01/27 09:47:12;;;;;;;6.05;1.40;;;;;;;6.21;73.46;101818.22;5019630;28;20053;-54
2024/01/27 09:49:41;;;;;;;3.60;0.93;;;;;;;6.71;71.45;101815.13;5013706;28;20045;-53
2024/01/27 09:52:08;;;;;;;12.77;2.17;;;;;;;7.12;70.73;101821.13;5015189;28;20496;-56
2024/01/27 09:54:36;;;;;;;7.18;1.63;;;;;;;7.40;71.14;101827.34;5019363;28;20057;-49
2024/01/27 09:57:04;;;;;;;10.63;1.27;;;;;;;7.54;70.51;101827.03;5020758;28;20045;-54
2024/01/27 09:59:33;;;;;;;3.50;1.33;;;;;;;7.66;69.96;101831.75;5021061;28;20060;-50
2024/01/27 10:02:06;;;;;;;6.65;0.93;;;;;;;7.82;68.92;101833.22;5015942;28;20729;-50
2024/01/27 10:04:32;;;;;;;4.95;0.85;;;;;;;7.85;69.14;101838.50;5025941;28;20049;-54
2024/01/27 10:07:01;;;;;;;3.90;1.10;;;;;;;7.95;68.55;101830.31;5021996;28;20068;-55
2024/01/27 10:09:28;;;;;;;7.22;1.20;;;;;;;8.16;68.91;101839.63;5017754;28;20084;-54
2024/01/27 10:11:57;;;;;;;6.38;0.85;;;;;;;8.47;68.71;101839.84;5026415;28;20141;-54
2024/01/27 10:14:24;;;;;;;5.70;1.05;;;;;;;8.77;68.54;101839.16;5021656;28;20053;-57
2024/01/27 10:16:50;;;;;;;7.03;1.20;;;;;;;9.02;67.47;101839.13;5024212;28;20060;-57
2024/01/27 10:19:18;;;;;;;3.70;0.85;;;;;;;9.12;67.09;101820.50;5018805;28;20065;-52
2024/01/27 10:21:46;;;;;;;4.47;1.10;;;;;;;9.13;66.85;101827.41;5016303;28;20045;-55
2024/01/27 10:24:14;;;;;;;3.88;0.73;;;;;;;9.16;66.53;101822.34;5020049;28;20045;-54
2024/01/27 10:26:41;;;;;;;10.43;1.50;;;;;;;9.24;65.89;101825.16;5022757;28;20535;-49
2024/01/27 10:29:09;;;;;;;3.40;0.98;;;;;;;9.27;65.92;101825.25;5027560;28;20056;-51
2024/01/27 10:31:36;;;;;;;7.38;0.63;;;;;;;9.22;65.53;101827.69;5022210;28;20053;-54
2024/01/27 10:34:04;;;;;;;9.27;1.38;;;;;;;9.10;65.00;101827.31;5024262;28;20136;-52
2024/01/27 10:36:47;;;;;;;3.63;1.38;;;;;;;8.93;65.02;101814.72;5021774;28;20053;-51
2024/01/27 10:39:22;;;;;;;7.00;1.35;;;;;;;8.87;65.76;101822.28;5023560;28;20144;-54
2024/01/27 10:41:52;;;;;;;15.27;3.22;;;;;;;8.73;65.85;101822.69;5019488;28;20096;-55
2024/01/27 10:44:20;;;;;;;14.63;3.97;;;;;;;8.60;65.55;101815.34;5018668;28;20049;-54
2024/01/27 10:46:48;;;;;;;26.63;7.93;;;;;;;8.46;65.42;101805.41;5022581;28;20156;-53
2024/01/27 10:49:17;;;;;;;12.82;4.22;;;;;;;8.34;66.03;101803.28;5019965;28;20645;-52
2024/01/27 10:52:06;;;;;;;44.78;13.73;;;;;;;8.19;65.35;101798.47;5020475;28;20045;-55
2024/01/27 10:54:34;;;;;;;78.88;25.27;;;;;;;8.12;65.18;101786.16;5016968;28;20052;-51
2024/01/27 10:57:02;;;;;;;130.63;40.90;;;;;;;8.08;66.52;101779.97;5020430;28;20053;-57
2024/01/27 10:59:31;;;;;;;86.07;36.10;;;;;;;8.00;66.48;101773.69;5017918;28;20532;-53
2024/01/27 11:01:58;;;;;;;27.88;13.52;;;;;;;7.94;65.64;101773.47;5024037;28;20056;-53
2024/01/27 11:04:28;;;;;;;9.73;5.55;;;;;;;7.84;65.85;101774.84;5021317;28;20046;-58
2024/01/27 11:06:56;;;;;;;11.15;3.65;;;;;;;7.84;66.69;101769.69;5016804;28;20064;-56
2024/01/27 11:09:24;;;;;;;26.58;12.57;;;;;;;7.85;65.35;101776.59;5022745;28;20057;-53
2024/01/27 11:11:52;;;;;;;13.05;5.72;;;;;;;7.92;66.49;101770.84;5015965;28;20406;-54
2024/01/27 11:14:19;;;;;;;13.32;4.45;;;;;;;8.01;66.50;101767.72;5022067;28;20053;-53
2024/01/27 11:16:47;;;;;;;13.77;6.78;;;;;;;8.11;65.97;101763.75;5023982;28;20050;-55
2024/01/27 11:19:17;;;;;;;11.57;4.70;;;;;;;8.17;66.27;101776.84;5020247;28;20075;-55
2024/01/27 11:21:44;;;;;;;47.90;20.02;;;;;;;8.23;66.76;101779.66;5016417;28;20041;-51
2024/01/27 11:24:15;;;;;;;12.45;3.80;;;;;;;8.32;66.69;101773.94;5017460;28;20100;-54
2024/01/27 11:26:42;;;;;;;17.92;3.65;;;;;;;8.42;66.33;101769.97;5015521;28;20068;-54
2024/01/27 11:29:18;;;;;;;90.38;37.88;;;;;;;8.51;67.04;101771.13;5018613;28;20049;-53
2024/01/27 11:31:45;;;;;;;177.00;81.78;;;;;;;8.58;66.28;101775.69;5015925;28;20127;-55